sensor_id;sensor_type;location;lat;lon;timestamp;P1;durP1;ratioP1;P2;durP2;ratioP2
84997;SDS011;75314;48.120;11.534;2024-02-28T00:00:42;20.00;;;14.47;;
84997;SDS011;75314;48.120;11.534;2024-02-28T00:03:08;21.80;;;16.20;;
84997;SDS011;75314;48.120;11.534;2024-02-28T00:05:33;20.77;;;16.23;;
84997;SDS011;75314;48.120;11.534;2024-02-28T00:07:58;20.10;;;15.90;;
84997;SDS011;75314;48.120;11.534;2024-02-28T00:10:23;21.00;;;15.50;;
84997;SDS011;75314;48.120;11.534;2024-02-28T00:12:48;21.93;;;15.90;;
84997;SDS011;75314;48.120;11.534;2024-02-28T00:15:14;19.50;;;15.57;;
84997;SDS011;75314;48.120;11.534;2024-02-28T00:17:39;19.33;;;15.43;;
84997;SDS011;75314;48.120;11.534;2024-02-28T00:20:05;20.37;;;15.80;;
84997;SDS011;75314;48.120;11.534;2024-02-28T00:22:31;23.27;;;16.60;;
84997;SDS011;75314;48.120;11.534;2024-02-28T00:24:56;21.33;;;16.13;;
84997;SDS011;75314;48.120;11.534;2024-02-28T00:27:21;19.60;;;15.67;;
84997;SDS011;75314;48.120;11.534;2024-02-28T00:29:47;20.80;;;16.20;;
84997;SDS011;75314;48.120;11.534;2024-02-28T00:32:12;21.53;;;16.63;;
84997;SDS011;75314;48.120;11.534;2024-02-28T00:34:37;21.03;;;16.43;;
84997;SDS011;75314;48.120;11.534;2024-02-28T00:37:02;21.37;;;15.73;;
84997;SDS011;75314;48.120;11.534;2024-02-28T00:39:27;21.17;;;16.27;;
84997;SDS011;75314;48.120;11.534;2024-02-28T00:41:53;20.40;;;15.97;;
84997;SDS011;75314;48.120;11.534;2024-02-28T00:44:18;21.17;;;17.03;;
84997;SDS011;75314;48.120;11.534;2024-02-28T00:46:43;20.30;;;16.07;;
84997;SDS011;75314;48.120;11.534;2024-02-28T00:49:08;22.03;;;16.50;;
84997;SDS011;75314;48.120;11.534;2024-02-28T00:51:33;21.17;;;16.77;;
84997;SDS011;75314;48.120;11.534;2024-02-28T00:53:59;20.67;;;14.77;;
84997;SDS011;75314;48.120;11.534;2024-02-28T00:56:24;20.20;;;16.23;;
84997;SDS011;75314;48.120;11.534;2024-02-28T00:58:49;24.97;;;18.07;;
84997;SDS011;75314;48.120;11.534;2024-02-28T01:01:14;20.87;;;16.10;;
84997;SDS011;75314;48.120;11.534;2024-02-28T01:03:39;21.10;;;15.50;;
84997;SDS011;75314;48.120;11.534;2024-02-28T01:06:05;20.10;;;15.70;;
84997;SDS011;75314;48.120;11.534;2024-02-28T01:08:30;22.77;;;16.87;;
84997;SDS011;75314;48.120;11.534;2024-02-28T01:10:55;20.33;;;16.40;;
84997;SDS011;75314;48.120;11.534;2024-02-28T01:13:20;19.10;;;15.63;;
84997;SDS011;75314;48.120;11.534;2024-02-28T01:15:45;21.00;;;15.77;;
84997;SDS011;75314;48.120;11.534;2024-02-28T01:18:11;19.97;;;16.13;;
84997;SDS011;75314;48.120;11.534;2024-02-28T01:20:36;20.23;;;15.47;;
84997;SDS011;75314;48.120;11.534;2024-02-28T01:23:01;19.60;;;15.43;;
84997;SDS011;75314;48.120;11.534;2024-02-28T01:25:26;19.57;;;14.63;;
84997;SDS011;75314;48.120;11.534;2024-02-28T01:27:52;19.30;;;14.57;;
84997;SDS011;75314;48.120;11.534;2024-02-28T01:30:17;19.07;;;14.80;;
84997;SDS011;75314;48.120;11.534;2024-02-28T01:32:42;18.63;;;15.07;;
84997;SDS011;75314;48.120;11.534;2024-02-28T01:35:08;19.63;;;15.23;;
84997;SDS011;75314;48.120;11.534;2024-02-28T01:37:34;18.97;;;15.37;;
84997;SDS011;75314;48.120;11.534;2024-02-28T01:39:59;19.70;;;14.63;;
84997;SDS011;75314;48.120;11.534;2024-02-28T01:42:24;20.57;;;16.07;;
84997;SDS011;75314;48.120;11.534;2024-02-28T01:44:49;19.80;;;15.23;;
84997;SDS011;75314;48.120;11.534;2024-02-28T01:47:14;19.67;;;15.27;;
84997;SDS011;75314;48.120;11.534;2024-02-28T01:49:40;19.80;;;15.50;;
84997;SDS011;75314;48.120;11.534;2024-02-28T01:52:06;19.93;;;15.27;;
84997;SDS011;75314;48.120;11.534;2024-02-28T01:54:32;18.33;;;15.23;;
84997;SDS011;75314;48.120;11.534;2024-02-28T01:56:59;19.30;;;15.03;;
84997;SDS011;75314;48.120;11.534;2024-02-28T01:59:24;20.30;;;15.50;;
84997;SDS011;75314;48.120;11.534;2024-02-28T02:01:51;19.53;;;15.13;;
84997;SDS011;75314;48.120;11.534;2024-02-28T02:04:16;19.00;;;15.27;;
84997;SDS011;75314;48.120;11.534;2024-02-28T02:06:42;21.90;;;16.53;;
84997;SDS011;75314;48.120;11.534;2024-02-28T02:09:08;19.77;;;15.60;;
84997;SDS011;75314;48.120;11.534;2024-02-28T02:11:33;20.10;;;16.97;;
84997;SDS011;75314;48.120;11.534;2024-02-28T02:13:59;24.97;;;17.97;;
84997;SDS011;75314;48.120;11.534;2024-02-28T02:16:24;23.80;;;17.23;;
84997;SDS011;75314;48.120;11.534;2024-02-28T02:18:49;19.87;;;16.37;;
84997;SDS011;75314;48.120;11.534;2024-02-28T02:21:15;22.40;;;17.00;;
84997;SDS011;75314;48.120;11.534;2024-02-28T02:23:42;20.80;;;16.47;;
84997;SDS011;75314;48.120;11.534;2024-02-28T02:26:08;20.27;;;16.20;;
84997;SDS011;75314;48.120;11.534;2024-02-28T02:28:33;24.83;;;18.07;;
84997;SDS011;75314;48.120;11.534;2024-02-28T02:30:58;23.00;;;17.73;;
84997;SDS011;75314;48.120;11.534;2024-02-28T02:33:23;22.87;;;17.40;;
84997;SDS011;75314;48.120;11.534;2024-02-28T02:35:49;19.63;;;16.27;;
84997;SDS011;75314;48.120;11.534;2024-02-28T02:38:14;22.17;;;17.17;;
84997;SDS011;75314;48.120;11.534;2024-02-28T02:40:39;25.63;;;18.60;;
84997;SDS011;75314;48.120;11.534;2024-02-28T02:43:04;21.93;;;17.30;;
84997;SDS011;75314;48.120;11.534;2024-02-28T02:45:30;23.53;;;18.23;;
84997;SDS011;75314;48.120;11.534;2024-02-28T02:47:55;24.80;;;19.13;;
84997;SDS011;75314;48.120;11.534;2024-02-28T02:50:20;25.10;;;18.57;;
84997;SDS011;75314;48.120;11.534;2024-02-28T02:52:45;21.77;;;17.67;;
84997;SDS011;75314;48.120;11.534;2024-02-28T02:55:10;24.90;;;18.80;;
84997;SDS011;75314;48.120;11.534;2024-02-28T02:57:36;22.77;;;17.33;;
84997;SDS011;75314;48.120;11.534;2024-02-28T03:00:01;24.60;;;18.93;;
84997;SDS011;75314;48.120;11.534;2024-02-28T03:02:26;23.77;;;19.27;;
84997;SDS011;75314;48.120;11.534;2024-02-28T03:04:51;24.97;;;18.90;;
84997;SDS011;75314;48.120;11.534;2024-02-28T03:07:16;24.93;;;19.17;;
84997;SDS011;75314;48.120;11.534;2024-02-28T03:09:42;25.17;;;19.43;;
84997;SDS011;75314;48.120;11.534;2024-02-28T03:12:07;25.23;;;20.40;;
84997;SDS011;75314;48.120;11.534;2024-02-28T03:14:34;27.03;;;20.90;;
84997;SDS011;75314;48.120;11.534;2024-02-28T03:17:00;28.73;;;20.73;;
84997;SDS011;75314;48.120;11.534;2024-02-28T03:19:25;27.63;;;20.77;;
84997;SDS011;75314;48.120;11.534;2024-02-28T03:21:50;30.03;;;21.97;;
84997;SDS011;75314;48.120;11.534;2024-02-28T03:24:15;28.43;;;21.27;;
84997;SDS011;75314;48.120;11.534;2024-02-28T03:26:40;29.80;;;21.43;;
84997;SDS011;75314;48.120;11.534;2024-02-28T03:29:06;26.50;;;20.53;;
84997;SDS011;75314;48.120;11.534;2024-02-28T03:31:31;27.07;;;21.07;;
84997;SDS011;75314;48.120;11.534;2024-02-28T03:33:56;28.27;;;21.37;;
84997;SDS011;75314;48.120;11.534;2024-02-28T03:36:21;26.73;;;20.57;;
84997;SDS011;75314;48.120;11.534;2024-02-28T03:38:46;29.97;;;22.03;;
84997;SDS011;75314;48.120;11.534;2024-02-28T03:41:12;27.97;;;20.50;;
84997;SDS011;75314;48.120;11.534;2024-02-28T03:43:37;28.00;;;21.57;;
84997;SDS011;75314;48.120;11.534;2024-02-28T03:46:02;26.47;;;19.50;;
84997;SDS011;75314;48.120;11.534;2024-02-28T03:48:27;28.17;;;19.70;;
84997;SDS011;75314;48.120;11.534;2024-02-28T03:50:53;30.33;;;20.93;;
84997;SDS011;75314;48.120;11.534;2024-02-28T03:53:18;29.80;;;20.53;;
84997;SDS011;75314;48.120;11.534;2024-02-28T03:55:43;28.97;;;21.23;;
84997;SDS011;75314;48.120;11.534;2024-02-28T03:58:08;31.00;;;22.60;;
84997;SDS011;75314;48.120;11.534;2024-02-28T04:00:34;28.27;;;20.27;;
84997;SDS011;75314;48.120;11.534;2024-02-28T04:02:59;25.00;;;20.13;;
84997;SDS011;75314;48.120;11.534;2024-02-28T04:05:24;25.13;;;20.23;;
84997;SDS011;75314;48.120;11.534;2024-02-28T04:07:50;28.63;;;20.90;;
84997;SDS011;75314;48.120;11.534;2024-02-28T04:10:15;28.17;;;21.53;;
84997;SDS011;75314;48.120;11.534;2024-02-28T04:12:42;27.00;;;20.87;;
84997;SDS011;75314;48.120;11.534;2024-02-28T04:15:07;29.07;;;20.53;;
84997;SDS011;75314;48.120;11.534;2024-02-28T04:17:33;26.43;;;20.53;;
84997;SDS011;75314;48.120;11.534;2024-02-28T04:19:58;27.70;;;20.83;;
84997;SDS011;75314;48.120;11.534;2024-02-28T04:22:23;29.80;;;21.80;;
84997;SDS011;75314;48.120;11.534;2024-02-28T04:24:49;27.10;;;20.53;;
84997;SDS011;75314;48.120;11.534;2024-02-28T04:27:14;28.73;;;20.70;;
84997;SDS011;75314;48.120;11.534;2024-02-28T04:29:39;33.87;;;22.40;;
84997;SDS011;75314;48.120;11.534;2024-02-28T04:32:04;29.50;;;20.47;;
84997;SDS011;75314;48.120;11.534;2024-02-28T04:34:29;28.87;;;20.83;;
84997;SDS011;75314;48.120;11.534;2024-02-28T04:36:55;32.03;;;22.97;;
84997;SDS011;75314;48.120;11.534;2024-02-28T04:39:20;31.67;;;21.20;;
84997;SDS011;75314;48.120;11.534;2024-02-28T04:41:45;26.63;;;19.60;;
84997;SDS011;75314;48.120;11.534;2024-02-28T04:44:11;28.17;;;20.60;;
84997;SDS011;75314;48.120;11.534;2024-02-28T04:46:36;28.87;;;21.83;;
84997;SDS011;75314;48.120;11.534;2024-02-28T04:49:02;31.13;;;22.77;;
84997;SDS011;75314;48.120;11.534;2024-02-28T04:51:27;31.27;;;21.80;;
84997;SDS011;75314;48.120;11.534;2024-02-28T04:53:52;29.23;;;21.83;;
84997;SDS011;75314;48.120;11.534;2024-02-28T04:56:17;31.60;;;23.23;;
84997;SDS011;75314;48.120;11.534;2024-02-28T04:58:42;27.40;;;20.10;;
84997;SDS011;75314;48.120;11.534;2024-02-28T05:01:08;28.53;;;21.10;;
84997;SDS011;75314;48.120;11.534;2024-02-28T05:03:33;30.93;;;22.67;;
84997;SDS011;75314;48.120;11.534;2024-02-28T05:05:58;32.73;;;22.40;;
84997;SDS011;75314;48.120;11.534;2024-02-28T05:08:23;31.17;;;23.07;;
84997;SDS011;75314;48.120;11.534;2024-02-28T05:10:49;33.30;;;23.63;;
84997;SDS011;75314;48.120;11.534;2024-02-28T05:13:14;33.67;;;24.17;;
84997;SDS011;75314;48.120;11.534;2024-02-28T05:15:40;30.17;;;21.50;;
84997;SDS011;75314;48.120;11.534;2024-02-28T05:18:05;31.73;;;23.67;;
84997;SDS011;75314;48.120;11.534;2024-02-28T05:20:30;32.20;;;22.80;;
84997;SDS011;75314;48.120;11.534;2024-02-28T05:22:55;30.97;;;22.90;;
84997;SDS011;75314;48.120;11.534;2024-02-28T05:25:20;29.87;;;21.83;;
84997;SDS011;75314;48.120;11.534;2024-02-28T05:27:46;30.57;;;22.90;;
84997;SDS011;75314;48.120;11.534;2024-02-28T05:30:11;33.00;;;23.70;;
84997;SDS011;75314;48.120;11.534;2024-02-28T05:32:36;32.87;;;24.03;;
84997;SDS011;75314;48.120;11.534;2024-02-28T05:35:02;31.73;;;23.43;;
84997;SDS011;75314;48.120;11.534;2024-02-28T05:37:27;33.73;;;22.77;;
84997;SDS011;75314;48.120;11.534;2024-02-28T05:39:52;31.37;;;23.43;;
84997;SDS011;75314;48.120;11.534;2024-02-28T05:42:17;31.47;;;23.27;;
84997;SDS011;75314;48.120;11.534;2024-02-28T05:44:43;31.47;;;22.83;;
84997;SDS011;75314;48.120;11.534;2024-02-28T05:47:08;31.53;;;22.80;;
84997;SDS011;75314;48.120;11.534;2024-02-28T05:49:33;33.90;;;24.40;;
84997;SDS011;75314;48.120;11.534;2024-02-28T05:51:58;33.37;;;22.83;;
84997;SDS011;75314;48.120;11.534;2024-02-28T05:54:23;31.63;;;22.50;;
84997;SDS011;75314;48.120;11.534;2024-02-28T05:56:49;36.93;;;24.17;;
84997;SDS011;75314;48.120;11.534;2024-02-28T05:59:14;33.93;;;23.83;;
84997;SDS011;75314;48.120;11.534;2024-02-28T06:01:39;33.67;;;24.33;;
84997;SDS011;75314;48.120;11.534;2024-02-28T06:04:04;33.30;;;23.63;;
84997;SDS011;75314;48.120;11.534;2024-02-28T06:06:29;34.53;;;23.83;;
84997;SDS011;75314;48.120;11.534;2024-02-28T06:08:55;34.97;;;24.30;;
84997;SDS011;75314;48.120;11.534;2024-02-28T06:11:20;36.17;;;24.17;;
84997;SDS011;75314;48.120;11.534;2024-02-28T06:13:45;33.57;;;22.70;;
84997;SDS011;75314;48.120;11.534;2024-02-28T06:16:14;33.47;;;23.80;;
84997;SDS011;75314;48.120;11.534;2024-02-28T06:18:39;36.37;;;23.93;;
84997;SDS011;75314;48.120;11.534;2024-02-28T06:21:04;33.13;;;23.87;;
84997;SDS011;75314;48.120;11.534;2024-02-28T06:23:29;31.83;;;22.77;;
84997;SDS011;75314;48.120;11.534;2024-02-28T06:25:55;33.93;;;24.97;;
84997;SDS011;75314;48.120;11.534;2024-02-28T06:28:21;36.80;;;26.63;;
84997;SDS011;75314;48.120;11.534;2024-02-28T06:30:46;34.90;;;23.80;;
84997;SDS011;75314;48.120;11.534;2024-02-28T06:33:12;30.87;;;23.10;;
84997;SDS011;75314;48.120;11.534;2024-02-28T06:35:37;33.10;;;23.00;;
84997;SDS011;75314;48.120;11.534;2024-02-28T06:38:02;32.80;;;23.13;;
84997;SDS011;75314;48.120;11.534;2024-02-28T06:40:28;33.87;;;24.73;;
84997;SDS011;75314;48.120;11.534;2024-02-28T06:42:53;29.77;;;22.67;;
84997;SDS011;75314;48.120;11.534;2024-02-28T06:45:18;33.40;;;24.30;;
84997;SDS011;75314;48.120;11.534;2024-02-28T06:47:43;35.67;;;24.20;;
84997;SDS011;75314;48.120;11.534;2024-02-28T06:50:09;36.43;;;24.63;;
84997;SDS011;75314;48.120;11.534;2024-02-28T06:52:34;48.17;;;34.20;;
84997;SDS011;75314;48.120;11.534;2024-02-28T06:54:59;39.17;;;28.10;;
84997;SDS011;75314;48.120;11.534;2024-02-28T06:57:24;37.80;;;26.57;;
84997;SDS011;75314;48.120;11.534;2024-02-28T06:59:50;34.23;;;25.50;;
84997;SDS011;75314;48.120;11.534;2024-02-28T07:02:15;36.07;;;25.23;;
84997;SDS011;75314;48.120;11.534;2024-02-28T07:04:40;36.37;;;24.50;;
84997;SDS011;75314;48.120;11.534;2024-02-28T07:07:06;36.50;;;24.77;;
84997;SDS011;75314;48.120;11.534;2024-02-28T07:09:31;33.27;;;24.10;;
84997;SDS011;75314;48.120;11.534;2024-02-28T07:11:56;35.43;;;24.73;;
84997;SDS011;75314;48.120;11.534;2024-02-28T07:14:21;35.67;;;24.07;;
84997;SDS011;75314;48.120;11.534;2024-02-28T07:16:47;37.80;;;25.73;;
84997;SDS011;75314;48.120;11.534;2024-02-28T07:19:12;40.00;;;27.07;;
84997;SDS011;75314;48.120;11.534;2024-02-28T07:21:37;35.77;;;24.10;;
84997;SDS011;75314;48.120;11.534;2024-02-28T07:24:02;36.10;;;24.77;;
84997;SDS011;75314;48.120;11.534;2024-02-28T07:26:28;38.53;;;26.63;;
84997;SDS011;75314;48.120;11.534;2024-02-28T07:28:53;39.23;;;26.37;;
84997;SDS011;75314;48.120;11.534;2024-02-28T07:31:18;40.60;;;26.43;;
84997;SDS011;75314;48.120;11.534;2024-02-28T07:33:44;39.83;;;26.53;;
84997;SDS011;75314;48.120;11.534;2024-02-28T07:36:09;44.27;;;26.97;;
84997;SDS011;75314;48.120;11.534;2024-02-28T07:38:35;41.17;;;27.10;;
84997;SDS011;75314;48.120;11.534;2024-02-28T07:41:00;44.67;;;27.90;;
84997;SDS011;75314;48.120;11.534;2024-02-28T07:43:25;41.30;;;26.87;;
84997;SDS011;75314;48.120;11.534;2024-02-28T07:45:50;44.30;;;28.47;;
84997;SDS011;75314;48.120;11.534;2024-02-28T07:48:15;46.17;;;28.77;;
84997;SDS011;75314;48.120;11.534;2024-02-28T07:50:41;43.53;;;28.90;;
84997;SDS011;75314;48.120;11.534;2024-02-28T07:53:06;40.93;;;26.30;;
84997;SDS011;75314;48.120;11.534;2024-02-28T07:55:31;44.13;;;27.30;;
84997;SDS011;75314;48.120;11.534;2024-02-28T07:57:56;40.90;;;26.43;;
84997;SDS011;75314;48.120;11.534;2024-02-28T08:00:22;42.03;;;27.07;;
84997;SDS011;75314;48.120;11.534;2024-02-28T08:02:47;43.23;;;27.53;;
84997;SDS011;75314;48.120;11.534;2024-02-28T08:05:13;42.47;;;28.40;;
84997;SDS011;75314;48.120;11.534;2024-02-28T08:07:38;44.67;;;28.97;;
84997;SDS011;75314;48.120;11.534;2024-02-28T08:10:03;41.63;;;27.37;;
84997;SDS011;75314;48.120;11.534;2024-02-28T08:12:29;46.47;;;29.63;;
84997;SDS011;75314;48.120;11.534;2024-02-28T08:14:54;41.83;;;27.60;;
84997;SDS011;75314;48.120;11.534;2024-02-28T08:17:19;45.63;;;30.87;;
84997;SDS011;75314;48.120;11.534;2024-02-28T08:19:44;44.00;;;30.20;;
84997;SDS011;75314;48.120;11.534;2024-02-28T08:22:10;42.47;;;27.67;;
84997;SDS011;75314;48.120;11.534;2024-02-28T08:24:35;43.03;;;27.40;;
84997;SDS011;75314;48.120;11.534;2024-02-28T08:27:00;40.63;;;26.50;;
84997;SDS011;75314;48.120;11.534;2024-02-28T08:29:25;41.67;;;26.83;;
84997;SDS011;75314;48.120;11.534;2024-02-28T08:31:50;46.50;;;29.40;;
84997;SDS011;75314;48.120;11.534;2024-02-28T08:34:16;52.43;;;31.00;;
84997;SDS011;75314;48.120;11.534;2024-02-28T08:36:41;45.43;;;28.07;;
84997;SDS011;75314;48.120;11.534;2024-02-28T08:39:06;45.53;;;29.00;;
84997;SDS011;75314;48.120;11.534;2024-02-28T08:41:33;42.97;;;28.20;;
84997;SDS011;75314;48.120;11.534;2024-02-28T08:43:58;43.17;;;27.50;;
84997;SDS011;75314;48.120;11.534;2024-02-28T08:46:23;45.67;;;28.03;;
84997;SDS011;75314;48.120;11.534;2024-02-28T08:48:49;43.67;;;28.33;;
84997;SDS011;75314;48.120;11.534;2024-02-28T08:51:14;44.87;;;28.90;;
84997;SDS011;75314;48.120;11.534;2024-02-28T08:53:39;43.00;;;27.77;;
84997;SDS011;75314;48.120;11.534;2024-02-28T08:56:05;46.03;;;28.47;;
84997;SDS011;75314;48.120;11.534;2024-02-28T08:58:30;47.47;;;29.90;;
84997;SDS011;75314;48.120;11.534;2024-02-28T09:00:55;44.77;;;29.00;;
84997;SDS011;75314;48.120;11.534;2024-02-28T09:03:21;46.40;;;29.13;;
84997;SDS011;75314;48.120;11.534;2024-02-28T09:05:46;47.53;;;30.40;;
84997;SDS011;75314;48.120;11.534;2024-02-28T09:08:11;43.43;;;27.80;;
84997;SDS011;75314;48.120;11.534;2024-02-28T09:10:36;49.57;;;30.13;;
84997;SDS011;75314;48.120;11.534;2024-02-28T09:13:02;44.60;;;28.53;;
84997;SDS011;75314;48.120;11.534;2024-02-28T09:15:27;45.07;;;28.23;;
84997;SDS011;75314;48.120;11.534;2024-02-28T09:17:52;45.93;;;28.63;;
84997;SDS011;75314;48.120;11.534;2024-02-28T09:20:17;48.07;;;29.23;;
84997;SDS011;75314;48.120;11.534;2024-02-28T09:22:42;44.43;;;28.77;;
84997;SDS011;75314;48.120;11.534;2024-02-28T09:25:08;46.23;;;29.70;;
84997;SDS011;75314;48.120;11.534;2024-02-28T09:27:34;48.30;;;30.60;;
84997;SDS011;75314;48.120;11.534;2024-02-28T09:29:59;44.73;;;29.30;;
84997;SDS011;75314;48.120;11.534;2024-02-28T09:32:25;44.93;;;30.40;;
84997;SDS011;75314;48.120;11.534;2024-02-28T09:34:50;45.43;;;28.50;;
84997;SDS011;75314;48.120;11.534;2024-02-28T09:37:15;44.17;;;30.03;;
84997;SDS011;75314;48.120;11.534;2024-02-28T09:39:40;43.97;;;28.97;;
84997;SDS011;75314;48.120;11.534;2024-02-28T09:42:06;44.87;;;29.63;;
84997;SDS011;75314;48.120;11.534;2024-02-28T09:44:32;50.23;;;32.93;;
84997;SDS011;75314;48.120;11.534;2024-02-28T09:46:57;51.83;;;34.37;;
84997;SDS011;75314;48.120;11.534;2024-02-28T09:49:22;47.87;;;31.77;;
84997;SDS011;75314;48.120;11.534;2024-02-28T09:51:49;46.70;;;30.20;;
84997;SDS011;75314;48.120;11.534;2024-02-28T09:54:14;43.77;;;29.50;;
84997;SDS011;75314;48.120;11.534;2024-02-28T09:56:40;42.97;;;29.67;;
84997;SDS011;75314;48.120;11.534;2024-02-28T09:59:05;46.03;;;29.17;;
84997;SDS011;75314;48.120;11.534;2024-02-28T10:01:31;46.57;;;29.97;;
84997;SDS011;75314;48.120;11.534;2024-02-28T10:04:03;44.93;;;30.27;;
84997;SDS011;75314;48.120;11.534;2024-02-28T10:06:28;48.57;;;31.57;;
84997;SDS011;75314;48.120;11.534;2024-02-28T10:08:54;44.37;;;30.40;;
84997;SDS011;75314;48.120;11.534;2024-02-28T10:11:22;44.27;;;30.50;;
84997;SDS011;75314;48.120;11.534;2024-02-28T10:13:48;46.23;;;29.40;;
84997;SDS011;75314;48.120;11.534;2024-02-28T10:16:13;43.20;;;29.27;;
84997;SDS011;75314;48.120;11.534;2024-02-28T10:18:39;48.33;;;29.47;;
84997;SDS011;75314;48.120;11.534;2024-02-28T10:21:04;41.87;;;27.97;;
84997;SDS011;75314;48.120;11.534;2024-02-28T10:23:29;43.17;;;28.50;;
84997;SDS011;75314;48.120;11.534;2024-02-28T10:25:54;42.50;;;28.37;;
84997;SDS011;75314;48.120;11.534;2024-02-28T10:28:21;40.37;;;28.23;;
84997;SDS011;75314;48.120;11.534;2024-02-28T10:30:46;38.63;;;27.80;;
84997;SDS011;75314;48.120;11.534;2024-02-28T10:33:15;43.57;;;29.63;;
84997;SDS011;75314;48.120;11.534;2024-02-28T10:35:40;44.23;;;29.03;;
84997;SDS011;75314;48.120;11.534;2024-02-28T10:38:06;37.20;;;26.07;;
84997;SDS011;75314;48.120;11.534;2024-02-28T10:40:31;39.47;;;27.17;;
84997;SDS011;75314;48.120;11.534;2024-02-28T10:42:57;40.77;;;27.80;;
84997;SDS011;75314;48.120;11.534;2024-02-28T10:45:22;37.50;;;26.80;;
84997;SDS011;75314;48.120;11.534;2024-02-28T10:47:49;37.20;;;26.13;;
84997;SDS011;75314;48.120;11.534;2024-02-28T10:50:15;43.70;;;27.80;;
84997;SDS011;75314;48.120;11.534;2024-02-28T10:52:43;37.33;;;25.57;;
84997;SDS011;75314;48.120;11.534;2024-02-28T10:55:09;36.97;;;24.17;;
84997;SDS011;75314;48.120;11.534;2024-02-28T10:57:34;33.37;;;24.30;;
84997;SDS011;75314;48.120;11.534;2024-02-28T11:00:01;39.47;;;26.87;;
84997;SDS011;75314;48.120;11.534;2024-02-28T11:02:27;33.77;;;24.30;;
84997;SDS011;75314;48.120;11.534;2024-02-28T11:04:52;35.53;;;25.00;;
84997;SDS011;75314;48.120;11.534;2024-02-28T11:07:21;38.30;;;26.40;;
84997;SDS011;75314;48.120;11.534;2024-02-28T11:09:46;39.80;;;26.73;;
84997;SDS011;75314;48.120;11.534;2024-02-28T11:12:23;37.20;;;26.40;;
84997;SDS011;75314;48.120;11.534;2024-02-28T11:14:55;35.10;;;25.23;;
84997;SDS011;75314;48.120;11.534;2024-02-28T11:17:27;37.30;;;26.57;;
84997;SDS011;75314;48.120;11.534;2024-02-28T11:19:52;36.80;;;25.93;;
84997;SDS011;75314;48.120;11.534;2024-02-28T11:22:18;39.90;;;27.53;;
84997;SDS011;75314;48.120;11.534;2024-02-28T11:24:43;39.33;;;27.77;;
84997;SDS011;75314;48.120;11.534;2024-02-28T11:27:11;40.03;;;25.73;;
84997;SDS011;75314;48.120;11.534;2024-02-28T11:29:37;35.77;;;24.70;;
84997;SDS011;75314;48.120;11.534;2024-02-28T11:32:02;37.07;;;26.20;;
84997;SDS011;75314;48.120;11.534;2024-02-28T11:34:27;38.67;;;26.20;;
84997;SDS011;75314;48.120;11.534;2024-02-28T11:36:53;39.43;;;25.50;;
84997;SDS011;75314;48.120;11.534;2024-02-28T11:39:18;35.97;;;25.30;;
84997;SDS011;75314;48.120;11.534;2024-02-28T11:41:43;42.07;;;27.40;;
84997;SDS011;75314;48.120;11.534;2024-02-28T11:44:09;38.07;;;25.93;;
84997;SDS011;75314;48.120;11.534;2024-02-28T11:46:34;38.27;;;26.67;;
84997;SDS011;75314;48.120;11.534;2024-02-28T11:49:01;40.67;;;27.70;;
84997;SDS011;75314;48.120;11.534;2024-02-28T11:51:26;38.53;;;27.60;;
84997;SDS011;75314;48.120;11.534;2024-02-28T11:53:51;38.67;;;27.07;;
84997;SDS011;75314;48.120;11.534;2024-02-28T11:56:16;39.13;;;26.50;;
84997;SDS011;75314;48.120;11.534;2024-02-28T11:58:51;40.73;;;28.27;;
84997;SDS011;75314;48.120;11.534;2024-02-28T12:01:17;38.90;;;26.80;;
84997;SDS011;75314;48.120;11.534;2024-02-28T12:03:44;40.90;;;27.67;;
84997;SDS011;75314;48.120;11.534;2024-02-28T12:06:10;43.50;;;28.60;;
84997;SDS011;75314;48.120;11.534;2024-02-28T12:08:36;40.03;;;27.23;;
84997;SDS011;75314;48.120;11.534;2024-02-28T12:11:07;42.50;;;28.67;;
84997;SDS011;75314;48.120;11.534;2024-02-28T12:13:33;42.50;;;29.27;;
84997;SDS011;75314;48.120;11.534;2024-02-28T12:15:58;39.13;;;26.77;;
84997;SDS011;75314;48.120;11.534;2024-02-28T12:18:25;46.13;;;28.60;;
84997;SDS011;75314;48.120;11.534;2024-02-28T12:20:51;42.83;;;29.67;;
84997;SDS011;75314;48.120;11.534;2024-02-28T12:23:16;41.60;;;28.03;;
84997;SDS011;75314;48.120;11.534;2024-02-28T12:25:41;46.53;;;30.77;;
84997;SDS011;75314;48.120;11.534;2024-02-28T12:28:06;44.23;;;30.73;;
84997;SDS011;75314;48.120;11.534;2024-02-28T12:30:38;39.20;;;27.67;;
84997;SDS011;75314;48.120;11.534;2024-02-28T12:33:04;41.73;;;28.47;;
84997;SDS011;75314;48.120;11.534;2024-02-28T12:35:30;41.93;;;28.30;;
84997;SDS011;75314;48.120;11.534;2024-02-28T12:37:55;40.23;;;26.20;;
84997;SDS011;75314;48.120;11.534;2024-02-28T12:40:20;43.27;;;28.57;;
84997;SDS011;75314;48.120;11.534;2024-02-28T12:42:45;41.47;;;27.50;;
84997;SDS011;75314;48.120;11.534;2024-02-28T12:45:10;41.90;;;27.67;;
84997;SDS011;75314;48.120;11.534;2024-02-28T12:47:36;42.80;;;28.87;;
84997;SDS011;75314;48.120;11.534;2024-02-28T12:50:01;39.30;;;27.07;;
84997;SDS011;75314;48.120;11.534;2024-02-28T12:52:26;40.23;;;27.27;;
84997;SDS011;75314;48.120;11.534;2024-02-28T12:54:51;38.20;;;25.60;;
84997;SDS011;75314;48.120;11.534;2024-02-28T12:57:16;37.67;;;26.33;;
84997;SDS011;75314;48.120;11.534;2024-02-28T12:59:42;39.37;;;27.30;;
84997;SDS011;75314;48.120;11.534;2024-02-28T13:02:07;35.23;;;25.80;;
84997;SDS011;75314;48.120;11.534;2024-02-28T13:04:33;36.10;;;25.77;;
84997;SDS011;75314;48.120;11.534;2024-02-28T13:06:59;39.50;;;26.87;;
84997;SDS011;75314;48.120;11.534;2024-02-28T13:09:24;37.50;;;26.27;;
84997;SDS011;75314;48.120;11.534;2024-02-28T13:11:49;36.20;;;25.60;;
84997;SDS011;75314;48.120;11.534;2024-02-28T13:14:14;38.27;;;26.63;;
84997;SDS011;75314;48.120;11.534;2024-02-28T13:16:40;34.87;;;24.90;;
84997;SDS011;75314;48.120;11.534;2024-02-28T13:19:05;33.77;;;23.60;;
84997;SDS011;75314;48.120;11.534;2024-02-28T13:21:30;34.67;;;23.13;;
84997;SDS011;75314;48.120;11.534;2024-02-28T13:23:56;32.00;;;23.47;;
84997;SDS011;75314;48.120;11.534;2024-02-28T13:26:21;32.73;;;22.50;;
84997;SDS011;75314;48.120;11.534;2024-02-28T13:28:46;32.73;;;25.00;;
84997;SDS011;75314;48.120;11.534;2024-02-28T13:31:11;34.23;;;24.87;;
84997;SDS011;75314;48.120;11.534;2024-02-28T13:33:36;37.43;;;26.60;;
84997;SDS011;75314;48.120;11.534;2024-02-28T13:36:02;40.13;;;26.17;;
84997;SDS011;75314;48.120;11.534;2024-02-28T13:38:28;40.43;;;27.23;;
84997;SDS011;75314;48.120;11.534;2024-02-28T13:40:53;37.40;;;26.77;;
84997;SDS011;75314;48.120;11.534;2024-02-28T13:43:18;40.83;;;27.93;;
84997;SDS011;75314;48.120;11.534;2024-02-28T13:45:47;37.93;;;26.20;;
84997;SDS011;75314;48.120;11.534;2024-02-28T13:48:17;36.83;;;26.20;;
84997;SDS011;75314;48.120;11.534;2024-02-28T13:50:46;37.40;;;25.80;;
84997;SDS011;75314;48.120;11.534;2024-02-28T13:53:12;38.03;;;27.43;;
84997;SDS011;75314;48.120;11.534;2024-02-28T13:55:38;39.13;;;27.13;;
84997;SDS011;75314;48.120;11.534;2024-02-28T13:58:03;39.37;;;27.27;;